sensor_id;sensor_type;location;lat;lon;timestamp;P1;durP1;ratioP1;P2;durP2;ratioP2
65238;SDS011;51827;51.186;6.926;2024-01-16T00:00:37;2.60;;;1.33;;
65238;SDS011;51827;51.186;6.926;2024-01-16T00:01:41;3.90;;;1.40;;
65238;SDS011;51827;51.186;6.926;2024-01-16T00:02:42;2.08;;;1.10;;
65238;SDS011;51827;51.186;6.926;2024-01-16T00:03:42;2.07;;;1.10;;
65238;SDS011;51827;51.186;6.926;2024-01-16T00:04:42;1.57;;;1.00;;
65238;SDS011;51827;51.186;6.926;2024-01-16T00:05:42;4.07;;;1.20;;
65238;SDS011;51827;51.186;6.926;2024-01-16T00:06:43;2.20;;;1.03;;
65238;SDS011;51827;51.186;6.926;2024-01-16T00:07:43;2.83;;;1.30;;
65238;SDS011;51827;51.186;6.926;2024-01-16T00:08:43;1.47;;;1.03;;
65238;SDS011;51827;51.186;6.926;2024-01-16T00:09:43;2.27;;;1.20;;
65238;SDS011;51827;51.186;6.926;2024-01-16T00:10:44;2.10;;;1.00;;
65238;SDS011;51827;51.186;6.926;2024-01-16T00:11:44;1.67;;;1.17;;
65238;SDS011;51827;51.186;6.926;2024-01-16T00:12:44;2.03;;;1.27;;
65238;SDS011;51827;51.186;6.926;2024-01-16T00:13:44;2.23;;;1.20;;
65238;SDS011;51827;51.186;6.926;2024-01-16T00:14:45;3.00;;;0.90;;
65238;SDS011;51827;51.186;6.926;2024-01-16T00:15:45;2.03;;;1.00;;
65238;SDS011;51827;51.186;6.926;2024-01-16T00:16:45;3.13;;;1.23;;
65238;SDS011;51827;51.186;6.926;2024-01-16T00:17:46;3.72;;;1.23;;
65238;SDS011;51827;51.186;6.926;2024-01-16T00:18:46;2.37;;;1.13;;
65238;SDS011;51827;51.186;6.926;2024-01-16T00:19:46;1.37;;;1.03;;
65238;SDS011;51827;51.186;6.926;2024-01-16T00:20:47;2.73;;;1.50;;
65238;SDS011;51827;51.186;6.926;2024-01-16T00:21:47;2.53;;;1.13;;
65238;SDS011;51827;51.186;6.926;2024-01-16T00:22:47;1.80;;;1.00;;
65238;SDS011;51827;51.186;6.926;2024-01-16T00:23:47;2.27;;;1.10;;
65238;SDS011;51827;51.186;6.926;2024-01-16T00:24:47;1.47;;;0.90;;
65238;SDS011;51827;51.186;6.926;2024-01-16T00:25:48;2.57;;;1.13;;
65238;SDS011;51827;51.186;6.926;2024-01-16T00:26:48;2.53;;;1.00;;
65238;SDS011;51827;51.186;6.926;2024-01-16T00:27:48;1.77;;;1.20;;
65238;SDS011;51827;51.186;6.926;2024-01-16T00:28:48;1.87;;;1.20;;
65238;SDS011;51827;51.186;6.926;2024-01-16T00:29:49;2.43;;;1.17;;
65238;SDS011;51827;51.186;6.926;2024-01-16T00:30:49;1.97;;;1.00;;
65238;SDS011;51827;51.186;6.926;2024-01-16T00:31:49;3.27;;;1.03;;
65238;SDS011;51827;51.186;6.926;2024-01-16T00:32:49;2.60;;;1.10;;
65238;SDS011;51827;51.186;6.926;2024-01-16T00:33:50;2.00;;;1.13;;
65238;SDS011;51827;51.186;6.926;2024-01-16T00:34:50;2.50;;;1.20;;
65238;SDS011;51827;51.186;6.926;2024-01-16T00:35:50;2.73;;;1.40;;
65238;SDS011;51827;51.186;6.926;2024-01-16T00:36:51;1.90;;;1.10;;
65238;SDS011;51827;51.186;6.926;2024-01-16T00:37:51;1.60;;;1.00;;
65238;SDS011;51827;51.186;6.926;2024-01-16T00:38:51;1.40;;;0.90;;
65238;SDS011;51827;51.186;6.926;2024-01-16T00:39:51;2.77;;;1.20;;
65238;SDS011;51827;51.186;6.926;2024-01-16T00:40:51;2.43;;;1.07;;
65238;SDS011;51827;51.186;6.926;2024-01-16T00:41:52;2.13;;;1.10;;
65238;SDS011;51827;51.186;6.926;2024-01-16T00:42:52;2.87;;;1.13;;
65238;SDS011;51827;51.186;6.926;2024-01-16T00:43:52;2.40;;;1.27;;
65238;SDS011;51827;51.186;6.926;2024-01-16T00:44:52;1.63;;;1.00;;
65238;SDS011;51827;51.186;6.926;2024-01-16T00:45:53;1.70;;;1.00;;
65238;SDS011;51827;51.186;6.926;2024-01-16T00:46:53;2.00;;;1.10;;
65238;SDS011;51827;51.186;6.926;2024-01-16T00:47:53;2.73;;;1.10;;
65238;SDS011;51827;51.186;6.926;2024-01-16T00:48:53;2.80;;;1.00;;
65238;SDS011;51827;51.186;6.926;2024-01-16T00:49:54;1.73;;;1.00;;
65238;SDS011;51827;51.186;6.926;2024-01-16T00:50:54;1.67;;;1.13;;
65238;SDS011;51827;51.186;6.926;2024-01-16T00:51:54;2.73;;;1.20;;
65238;SDS011;51827;51.186;6.926;2024-01-16T00:52:54;1.73;;;1.00;;
65238;SDS011;51827;51.186;6.926;2024-01-16T00:53:55;1.70;;;1.00;;
65238;SDS011;51827;51.186;6.926;2024-01-16T00:54:55;1.63;;;1.00;;
65238;SDS011;51827;51.186;6.926;2024-01-16T00:55:55;1.60;;;1.00;;
65238;SDS011;51827;51.186;6.926;2024-01-16T00:56:55;2.57;;;1.27;;
65238;SDS011;51827;51.186;6.926;2024-01-16T00:57:56;2.40;;;1.00;;
65238;SDS011;51827;51.186;6.926;2024-01-16T00:58:56;1.63;;;1.10;;
65238;SDS011;51827;51.186;6.926;2024-01-16T00:59:56;1.67;;;1.10;;
65238;SDS011;51827;51.186;6.926;2024-01-16T01:00:56;1.93;;;1.10;;
65238;SDS011;51827;51.186;6.926;2024-01-16T01:01:57;1.60;;;1.00;;
65238;SDS011;51827;51.186;6.926;2024-01-16T01:02:57;1.10;;;0.90;;
65238;SDS011;51827;51.186;6.926;2024-01-16T01:03:57;1.53;;;1.00;;
65238;SDS011;51827;51.186;6.926;2024-01-16T01:04:57;2.37;;;1.20;;
65238;SDS011;51827;51.186;6.926;2024-01-16T01:05:58;2.17;;;1.00;;
65238;SDS011;51827;51.186;6.926;2024-01-16T01:07:00;1.90;;;0.98;;
65238;SDS011;51827;51.186;6.926;2024-01-16T01:08:00;1.33;;;0.90;;
65238;SDS011;51827;51.186;6.926;2024-01-16T01:09:00;2.10;;;1.00;;
65238;SDS011;51827;51.186;6.926;2024-01-16T01:10:01;1.97;;;1.10;;
65238;SDS011;51827;51.186;6.926;2024-01-16T01:11:02;1.65;;;1.10;;
65238;SDS011;51827;51.186;6.926;2024-01-16T01:12:03;2.80;;;1.20;;
65238;SDS011;51827;51.186;6.926;2024-01-16T01:13:03;1.85;;;1.10;;
65238;SDS011;51827;51.186;6.926;2024-01-16T01:14:04;2.30;;;1.10;;
65238;SDS011;51827;51.186;6.926;2024-01-16T01:15:04;1.33;;;1.00;;
65238;SDS011;51827;51.186;6.926;2024-01-16T01:16:05;3.13;;;1.23;;
65238;SDS011;51827;51.186;6.926;2024-01-16T01:17:05;1.83;;;1.00;;
65238;SDS011;51827;51.186;6.926;2024-01-16T01:18:05;1.80;;;1.10;;
65238;SDS011;51827;51.186;6.926;2024-01-16T01:19:05;1.80;;;1.00;;
65238;SDS011;51827;51.186;6.926;2024-01-16T01:20:06;1.20;;;1.00;;
65238;SDS011;51827;51.186;6.926;2024-01-16T01:21:08;1.60;;;1.00;;
65238;SDS011;51827;51.186;6.926;2024-01-16T01:22:08;1.87;;;1.00;;
65238;SDS011;51827;51.186;6.926;2024-01-16T01:23:09;1.57;;;1.00;;
65238;SDS011;51827;51.186;6.926;2024-01-16T01:24:09;1.20;;;0.90;;
65238;SDS011;51827;51.186;6.926;2024-01-16T01:25:10;1.77;;;1.00;;
65238;SDS011;51827;51.186;6.926;2024-01-16T01:27:11;2.05;;;1.30;;
65238;SDS011;51827;51.186;6.926;2024-01-16T01:28:11;1.60;;;1.10;;
65238;SDS011;51827;51.186;6.926;2024-01-16T01:29:11;1.23;;;0.87;;
65238;SDS011;51827;51.186;6.926;2024-01-16T01:30:12;2.73;;;1.03;;
65238;SDS011;51827;51.186;6.926;2024-01-16T01:31:12;1.87;;;1.30;;
65238;SDS011;51827;51.186;6.926;2024-01-16T01:32:12;1.83;;;1.20;;
65238;SDS011;51827;51.186;6.926;2024-01-16T01:33:12;2.63;;;1.00;;
65238;SDS011;51827;51.186;6.926;2024-01-16T01:34:13;2.00;;;1.20;;
65238;SDS011;51827;51.186;6.926;2024-01-16T01:35:13;2.17;;;1.05;;
65238;SDS011;51827;51.186;6.926;2024-01-16T01:36:13;1.57;;;1.00;;
65238;SDS011;51827;51.186;6.926;2024-01-16T01:37:14;1.73;;;1.00;;
65238;SDS011;51827;51.186;6.926;2024-01-16T01:38:14;2.03;;;1.00;;
65238;SDS011;51827;51.186;6.926;2024-01-16T01:39:14;1.93;;;1.20;;
65238;SDS011;51827;51.186;6.926;2024-01-16T01:40:14;2.63;;;1.27;;
65238;SDS011;51827;51.186;6.926;2024-01-16T01:41:15;2.17;;;1.13;;
65238;SDS011;51827;51.186;6.926;2024-01-16T01:42:15;2.23;;;1.00;;
65238;SDS011;51827;51.186;6.926;2024-01-16T01:43:19;2.35;;;1.10;;
65238;SDS011;51827;51.186;6.926;2024-01-16T01:44:21;2.55;;;1.20;;
65238;SDS011;51827;51.186;6.926;2024-01-16T01:45:21;1.93;;;1.10;;
65238;SDS011;51827;51.186;6.926;2024-01-16T01:46:21;1.80;;;1.00;;
65238;SDS011;51827;51.186;6.926;2024-01-16T01:47:22;2.00;;;1.20;;
65238;SDS011;51827;51.186;6.926;2024-01-16T01:48:22;1.73;;;1.20;;
65238;SDS011;51827;51.186;6.926;2024-01-16T01:49:23;1.58;;;1.10;;
65238;SDS011;51827;51.186;6.926;2024-01-16T01:50:25;1.58;;;1.10;;
65238;SDS011;51827;51.186;6.926;2024-01-16T01:51:25;1.47;;;0.90;;
65238;SDS011;51827;51.186;6.926;2024-01-16T01:52:25;1.00;;;0.90;;
65238;SDS011;51827;51.186;6.926;2024-01-16T01:53:26;2.23;;;1.30;;
65238;SDS011;51827;51.186;6.926;2024-01-16T01:54:27;1.90;;;1.10;;
65238;SDS011;51827;51.186;6.926;2024-01-16T01:55:28;2.03;;;1.20;;
65238;SDS011;51827;51.186;6.926;2024-01-16T01:56:28;1.33;;;1.03;;
65238;SDS011;51827;51.186;6.926;2024-01-16T01:57:28;1.65;;;1.10;;
65238;SDS011;51827;51.186;6.926;2024-01-16T01:58:29;1.58;;;1.00;;
65238;SDS011;51827;51.186;6.926;2024-01-16T01:59:29;1.73;;;1.10;;
65238;SDS011;51827;51.186;6.926;2024-01-16T02:00:31;2.92;;;1.10;;
65238;SDS011;51827;51.186;6.926;2024-01-16T02:01:32;1.27;;;1.00;;
65238;SDS011;51827;51.186;6.926;2024-01-16T02:02:34;2.08;;;1.10;;
65238;SDS011;51827;51.186;6.926;2024-01-16T02:03:41;2.50;;;1.00;;
65238;SDS011;51827;51.186;6.926;2024-01-16T02:04:43;1.70;;;1.05;;
65238;SDS011;51827;51.186;6.926;2024-01-16T02:05:44;1.90;;;1.10;;
65238;SDS011;51827;51.186;6.926;2024-01-16T02:06:45;2.20;;;1.20;;
65238;SDS011;51827;51.186;6.926;2024-01-16T02:07:45;1.58;;;1.10;;
65238;SDS011;51827;51.186;6.926;2024-01-16T02:08:46;1.58;;;1.00;;
65238;SDS011;51827;51.186;6.926;2024-01-16T02:09:46;2.03;;;1.20;;
65238;SDS011;51827;51.186;6.926;2024-01-16T02:10:47;1.83;;;1.10;;
65238;SDS011;51827;51.186;6.926;2024-01-16T02:11:49;2.05;;;1.20;;
65238;SDS011;51827;51.186;6.926;2024-01-16T02:12:49;2.60;;;1.10;;
65238;SDS011;51827;51.186;6.926;2024-01-16T02:13:50;2.00;;;1.13;;
65238;SDS011;51827;51.186;6.926;2024-01-16T02:14:50;2.47;;;1.10;;
65238;SDS011;51827;51.186;6.926;2024-01-16T02:15:50;1.80;;;1.00;;
65238;SDS011;51827;51.186;6.926;2024-01-16T02:16:50;1.40;;;1.10;;
65238;SDS011;51827;51.186;6.926;2024-01-16T02:17:51;1.83;;;1.20;;
65238;SDS011;51827;51.186;6.926;2024-01-16T02:18:51;2.13;;;1.17;;
65238;SDS011;51827;51.186;6.926;2024-01-16T02:19:52;1.88;;;1.13;;
65238;SDS011;51827;51.186;6.926;2024-01-16T02:20:52;3.00;;;1.00;;
65238;SDS011;51827;51.186;6.926;2024-01-16T02:21:54;1.90;;;1.20;;
65238;SDS011;51827;51.186;6.926;2024-01-16T02:23:00;2.33;;;1.23;;
65238;SDS011;51827;51.186;6.926;2024-01-16T02:24:03;2.30;;;0.90;;
65238;SDS011;51827;51.186;6.926;2024-01-16T02:25:09;1.88;;;1.10;;
65238;SDS011;51827;51.186;6.926;2024-01-16T02:26:10;2.03;;;1.10;;
65238;SDS011;51827;51.186;6.926;2024-01-16T02:27:10;2.20;;;1.13;;
65238;SDS011;51827;51.186;6.926;2024-01-16T02:28:10;2.47;;;1.13;;
65238;SDS011;51827;51.186;6.926;2024-01-16T02:29:10;1.93;;;1.30;;
65238;SDS011;51827;51.186;6.926;2024-01-16T02:30:11;1.90;;;1.10;;
65238;SDS011;51827;51.186;6.926;2024-01-16T02:31:11;1.58;;;1.08;;
65238;SDS011;51827;51.186;6.926;2024-01-16T02:32:12;1.63;;;1.00;;
65238;SDS011;51827;51.186;6.926;2024-01-16T02:33:12;2.15;;;1.10;;
65238;SDS011;51827;51.186;6.926;2024-01-16T02:34:13;1.40;;;1.00;;
65238;SDS011;51827;51.186;6.926;2024-01-16T02:35:13;2.50;;;1.37;;
65238;SDS011;51827;51.186;6.926;2024-01-16T02:36:13;2.03;;;1.10;;
65238;SDS011;51827;51.186;6.926;2024-01-16T02:37:13;1.87;;;1.20;;
65238;SDS011;51827;51.186;6.926;2024-01-16T02:38:14;2.37;;;1.10;;
65238;SDS011;51827;51.186;6.926;2024-01-16T02:39:14;2.30;;;1.10;;
65238;SDS011;51827;51.186;6.926;2024-01-16T02:40:14;1.73;;;1.10;;
65238;SDS011;51827;51.186;6.926;2024-01-16T02:41:15;2.63;;;1.30;;
65238;SDS011;51827;51.186;6.926;2024-01-16T02:43:16;1.97;;;1.00;;
65238;SDS011;51827;51.186;6.926;2024-01-16T02:44:16;2.53;;;1.00;;
65238;SDS011;51827;51.186;6.926;2024-01-16T02:45:17;2.40;;;1.10;;
65238;SDS011;51827;51.186;6.926;2024-01-16T02:46:17;2.10;;;1.07;;
65238;SDS011;51827;51.186;6.926;2024-01-16T02:47:17;1.80;;;1.10;;
65238;SDS011;51827;51.186;6.926;2024-01-16T02:48:17;3.17;;;1.00;;
65238;SDS011;51827;51.186;6.926;2024-01-16T02:49:17;1.80;;;1.10;;
65238;SDS011;51827;51.186;6.926;2024-01-16T02:50:18;1.83;;;0.90;;
65238;SDS011;51827;51.186;6.926;2024-01-16T02:51:18;1.87;;;1.07;;
65238;SDS011;51827;51.186;6.926;2024-01-16T02:52:18;1.70;;;1.00;;
65238;SDS011;51827;51.186;6.926;2024-01-16T02:53:18;1.77;;;1.10;;
65238;SDS011;51827;51.186;6.926;2024-01-16T02:54:19;1.87;;;1.03;;
65238;SDS011;51827;51.186;6.926;2024-01-16T02:55:20;1.83;;;1.10;;
65238;SDS011;51827;51.186;6.926;2024-01-16T02:56:20;2.17;;;1.03;;
65238;SDS011;51827;51.186;6.926;2024-01-16T02:57:20;2.50;;;0.90;;
65238;SDS011;51827;51.186;6.926;2024-01-16T02:58:20;3.10;;;1.00;;
65238;SDS011;51827;51.186;6.926;2024-01-16T02:59:21;2.03;;;1.17;;
65238;SDS011;51827;51.186;6.926;2024-01-16T03:00:21;3.10;;;1.20;;
65238;SDS011;51827;51.186;6.926;2024-01-16T03:01:21;2.97;;;1.20;;
65238;SDS011;51827;51.186;6.926;2024-01-16T03:02:22;1.53;;;0.93;;
65238;SDS011;51827;51.186;6.926;2024-01-16T03:03:22;2.20;;;1.10;;
65238;SDS011;51827;51.186;6.926;2024-01-16T03:04:23;1.70;;;0.98;;
65238;SDS011;51827;51.186;6.926;2024-01-16T03:05:23;2.70;;;1.30;;
65238;SDS011;51827;51.186;6.926;2024-01-16T03:06:24;1.60;;;1.00;;
65238;SDS011;51827;51.186;6.926;2024-01-16T03:07:24;2.03;;;1.10;;
65238;SDS011;51827;51.186;6.926;2024-01-16T03:08:24;2.27;;;1.13;;
65238;SDS011;51827;51.186;6.926;2024-01-16T03:09:25;2.33;;;1.10;;
65238;SDS011;51827;51.186;6.926;2024-01-16T03:10:25;2.07;;;1.20;;
65238;SDS011;51827;51.186;6.926;2024-01-16T03:11:25;1.90;;;1.00;;
65238;SDS011;51827;51.186;6.926;2024-01-16T03:12:25;2.13;;;1.00;;
65238;SDS011;51827;51.186;6.926;2024-01-16T03:13:26;1.20;;;0.90;;
65238;SDS011;51827;51.186;6.926;2024-01-16T03:14:26;1.70;;;1.20;;
65238;SDS011;51827;51.186;6.926;2024-01-16T03:15:26;1.40;;;1.00;;
65238;SDS011;51827;51.186;6.926;2024-01-16T03:16:27;1.83;;;1.20;;
65238;SDS011;51827;51.186;6.926;2024-01-16T03:17:27;1.63;;;1.02;;
65238;SDS011;51827;51.186;6.926;2024-01-16T03:18:27;1.83;;;1.10;;
65238;SDS011;51827;51.186;6.926;2024-01-16T03:19:28;2.00;;;1.07;;
65238;SDS011;51827;51.186;6.926;2024-01-16T03:20:28;1.60;;;1.10;;
65238;SDS011;51827;51.186;6.926;2024-01-16T03:21:28;1.33;;;0.93;;
65238;SDS011;51827;51.186;6.926;2024-01-16T03:22:29;1.50;;;1.10;;
65238;SDS011;51827;51.186;6.926;2024-01-16T03:23:29;1.47;;;0.93;;
65238;SDS011;51827;51.186;6.926;2024-01-16T03:24:29;1.43;;;0.97;;
65238;SDS011;51827;51.186;6.926;2024-01-16T03:25:29;1.70;;;1.10;;
65238;SDS011;51827;51.186;6.926;2024-01-16T03:26:30;1.87;;;1.10;;
65238;SDS011;51827;51.186;6.926;2024-01-16T03:27:30;1.77;;;1.17;;
65238;SDS011;51827;51.186;6.926;2024-01-16T03:28:30;2.77;;;1.00;;
65238;SDS011;51827;51.186;6.926;2024-01-16T03:29:30;1.67;;;0.90;;
65238;SDS011;51827;51.186;6.926;2024-01-16T03:30:31;1.17;;;0.93;;
65238;SDS011;51827;51.186;6.926;2024-01-16T03:31:31;1.73;;;1.10;;
65238;SDS011;51827;51.186;6.926;2024-01-16T03:32:31;2.00;;;1.17;;
65238;SDS011;51827;51.186;6.926;2024-01-16T03:33:32;1.48;;;1.02;;
65238;SDS011;51827;51.186;6.926;2024-01-16T03:34:32;1.60;;;1.07;;
65238;SDS011;51827;51.186;6.926;2024-01-16T03:35:32;1.47;;;0.90;;
65238;SDS011;51827;51.186;6.926;2024-01-16T03:36:32;2.37;;;1.13;;
65238;SDS011;51827;51.186;6.926;2024-01-16T03:37:33;1.20;;;1.00;;
65238;SDS011;51827;51.186;6.926;2024-01-16T03:38:33;1.85;;;1.05;;
65238;SDS011;51827;51.186;6.926;2024-01-16T03:39:34;1.80;;;1.10;;
65238;SDS011;51827;51.186;6.926;2024-01-16T03:40:34;2.67;;;1.17;;
65238;SDS011;51827;51.186;6.926;2024-01-16T03:41:34;1.47;;;1.03;;
65238;SDS011;51827;51.186;6.926;2024-01-16T03:42:34;1.97;;;1.00;;
65238;SDS011;51827;51.186;6.926;2024-01-16T03:43:35;1.87;;;1.00;;
65238;SDS011;51827;51.186;6.926;2024-01-16T03:44:38;1.87;;;1.17;;
65238;SDS011;51827;51.186;6.926;2024-01-16T03:45:39;1.35;;;0.95;;
65238;SDS011;51827;51.186;6.926;2024-01-16T03:46:39;2.37;;;1.10;;
65238;SDS011;51827;51.186;6.926;2024-01-16T03:47:39;1.77;;;1.00;;
65238;SDS011;51827;51.186;6.926;2024-01-16T03:48:39;2.50;;;1.10;;
65238;SDS011;51827;51.186;6.926;2024-01-16T03:49:40;1.43;;;1.17;;
65238;SDS011;51827;51.186;6.926;2024-01-16T03:50:40;2.53;;;1.30;;
65238;SDS011;51827;51.186;6.926;2024-01-16T03:51:40;1.93;;;1.13;;
65238;SDS011;51827;51.186;6.926;2024-01-16T03:52:40;1.80;;;1.23;;
65238;SDS011;51827;51.186;6.926;2024-01-16T03:53:41;1.80;;;1.00;;
65238;SDS011;51827;51.186;6.926;2024-01-16T03:54:41;3.45;;;1.10;;
65238;SDS011;51827;51.186;6.926;2024-01-16T03:55:41;3.27;;;1.10;;
65238;SDS011;51827;51.186;6.926;2024-01-16T03:56:42;1.43;;;1.00;;
65238;SDS011;51827;51.186;6.926;2024-01-16T03:57:42;2.00;;;1.03;;
65238;SDS011;51827;51.186;6.926;2024-01-16T03:58:42;2.03;;;1.20;;
65238;SDS011;51827;51.186;6.926;2024-01-16T03:59:42;1.50;;;1.03;;
65238;SDS011;51827;51.186;6.926;2024-01-16T04:00:43;2.00;;;1.20;;
65238;SDS011;51827;51.186;6.926;2024-01-16T04:02:44;2.45;;;1.20;;
65238;SDS011;51827;51.186;6.926;2024-01-16T04:03:44;2.20;;;1.00;;
65238;SDS011;51827;51.186;6.926;2024-01-16T04:04:44;2.50;;;1.23;;
65238;SDS011;51827;51.186;6.926;2024-01-16T04:05:45;1.20;;;0.83;;
65238;SDS011;51827;51.186;6.926;2024-01-16T04:06:48;2.13;;;1.03;;
65238;SDS011;51827;51.186;6.926;2024-01-16T04:07:48;2.22;;;1.20;;
65238;SDS011;51827;51.186;6.926;2024-01-16T04:08:49;1.53;;;1.10;;
65238;SDS011;51827;51.186;6.926;2024-01-16T04:09:49;2.07;;;1.30;;
65238;SDS011;51827;51.186;6.926;2024-01-16T04:10:49;1.23;;;1.00;;
65238;SDS011;51827;51.186;6.926;2024-01-16T04:11:50;2.00;;;1.23;;
65238;SDS011;51827;51.186;6.926;2024-01-16T04:12:50;2.50;;;1.48;;
65238;SDS011;51827;51.186;6.926;2024-01-16T04:13:50;2.00;;;0.90;;
65238;SDS011;51827;51.186;6.926;2024-01-16T04:14:51;2.20;;;1.23;;
65238;SDS011;51827;51.186;6.926;2024-01-16T04:15:51;1.87;;;1.03;;
65238;SDS011;51827;51.186;6.926;2024-01-16T04:16:51;1.97;;;1.20;;
65238;SDS011;51827;51.186;6.926;2024-01-16T04:17:51;2.17;;;1.30;;
65238;SDS011;51827;51.186;6.926;2024-01-16T04:18:52;2.13;;;1.10;;
65238;SDS011;51827;51.186;6.926;2024-01-16T04:19:52;2.43;;;1.23;;
65238;SDS011;51827;51.186;6.926;2024-01-16T04:20:52;1.80;;;1.10;;
65238;SDS011;51827;51.186;6.926;2024-01-16T04:21:52;2.20;;;1.10;;
65238;SDS011;51827;51.186;6.926;2024-01-16T04:22:52;3.20;;;1.20;;
65238;SDS011;51827;51.186;6.926;2024-01-16T04:23:53;1.83;;;1.00;;
65238;SDS011;51827;51.186;6.926;2024-01-16T04:24:53;2.20;;;1.10;;
65238;SDS011;51827;51.186;6.926;2024-01-16T04:25:53;1.13;;;1.00;;
65238;SDS011;51827;51.186;6.926;2024-01-16T04:26:53;1.97;;;1.20;;
65238;SDS011;51827;51.186;6.926;2024-01-16T04:27:54;1.90;;;1.33;;
65238;SDS011;51827;51.186;6.926;2024-01-16T04:28:54;1.70;;;1.07;;
65238;SDS011;51827;51.186;6.926;2024-01-16T04:29:54;1.80;;;1.10;;
65238;SDS011;51827;51.186;6.926;2024-01-16T04:30:54;1.57;;;1.10;;
65238;SDS011;51827;51.186;6.926;2024-01-16T04:31:55;1.60;;;1.07;;
65238;SDS011;51827;51.186;6.926;2024-01-16T04:32:55;1.50;;;1.07;;
65238;SDS011;51827;51.186;6.926;2024-01-16T04:33:55;1.70;;;1.00;;
65238;SDS011;51827;51.186;6.926;2024-01-16T04:34:55;2.20;;;1.20;;
65238;SDS011;51827;51.186;6.926;2024-01-16T04:35:56;2.60;;;1.10;;
65238;SDS011;51827;51.186;6.926;2024-01-16T04:36:56;1.23;;;0.90;;
65238;SDS011;51827;51.186;6.926;2024-01-16T04:37:57;1.53;;;1.00;;
65238;SDS011;51827;51.186;6.926;2024-01-16T04:38:57;1.70;;;0.93;;
65238;SDS011;51827;51.186;6.926;2024-01-16T04:39:57;1.33;;;1.00;;
65238;SDS011;51827;51.186;6.926;2024-01-16T04:41:00;1.93;;;1.10;;
65238;SDS011;51827;51.186;6.926;2024-01-16T04:42:01;2.22;;;1.15;;
65238;SDS011;51827;51.186;6.926;2024-01-16T04:43:02;1.73;;;1.10;;
65238;SDS011;51827;51.186;6.926;2024-01-16T04:44:02;2.33;;;1.17;;
65238;SDS011;51827;51.186;6.926;2024-01-16T04:45:03;2.15;;;1.00;;
65238;SDS011;51827;51.186;6.926;2024-01-16T04:46:03;1.77;;;1.10;;
65238;SDS011;51827;51.186;6.926;2024-01-16T04:47:03;1.70;;;1.10;;
65238;SDS011;51827;51.186;6.926;2024-01-16T04:48:04;1.45;;;1.00;;
65238;SDS011;51827;51.186;6.926;2024-01-16T04:49:04;1.92;;;1.30;;
65238;SDS011;51827;51.186;6.926;2024-01-16T04:50:05;2.23;;;1.10;;
65238;SDS011;51827;51.186;6.926;2024-01-16T04:51:05;2.08;;;1.10;;
65238;SDS011;51827;51.186;6.926;2024-01-16T04:52:06;6.00;;;1.27;;
65238;SDS011;51827;51.186;6.926;2024-01-16T04:53:06;1.80;;;1.10;;
65238;SDS011;51827;51.186;6.926;2024-01-16T04:54:07;1.10;;;1.00;;
65238;SDS011;51827;51.186;6.926;2024-01-16T04:55:07;2.13;;;1.02;;
65238;SDS011;51827;51.186;6.926;2024-01-16T04:56:08;2.40;;;1.03;;
65238;SDS011;51827;51.186;6.926;2024-01-16T04:57:08;1.83;;;1.17;;
65238;SDS011;51827;51.186;6.926;2024-01-16T04:58:08;1.83;;;1.10;;
65238;SDS011;51827;51.186;6.926;2024-01-16T04:59:08;1.53;;;1.10;;
65238;SDS011;51827;51.186;6.926;2024-01-16T05:00:09;2.67;;;1.10;;
65238;SDS011;51827;51.186;6.926;2024-01-16T05:01:10;2.60;;;1.10;;
65238;SDS011;51827;51.186;6.926;2024-01-16T05:02:10;1.70;;;1.10;;
65238;SDS011;51827;51.186;6.926;2024-01-16T05:03:10;2.30;;;1.20;;
65238;SDS011;51827;51.186;6.926;2024-01-16T05:04:10;2.37;;;1.10;;
65238;SDS011;51827;51.186;6.926;2024-01-16T05:05:11;3.33;;;1.20;;
65238;SDS011;51827;51.186;6.926;2024-01-16T05:06:14;2.23;;;1.17;;
65238;SDS011;51827;51.186;6.926;2024-01-16T05:07:15;3.53;;;1.38;;
65238;SDS011;51827;51.186;6.926;2024-01-16T05:08:15;2.87;;;0.90;;
65238;SDS011;51827;51.186;6.926;2024-01-16T05:09:16;1.80;;;1.00;;
65238;SDS011;51827;51.186;6.926;2024-01-16T05:10:16;2.13;;;1.20;;
65238;SDS011;51827;51.186;6.926;2024-01-16T05:11:16;2.27;;;1.00;;
65238;SDS011;51827;51.186;6.926;2024-01-16T05:12:16;4.93;;;1.20;;
65238;SDS011;51827;51.186;6.926;2024-01-16T05:13:17;4.50;;;1.43;;
65238;SDS011;51827;51.186;6.926;2024-01-16T05:14:17;3.13;;;1.73;;
65238;SDS011;51827;51.186;6.926;2024-01-16T05:15:17;4.70;;;2.50;;
65238;SDS011;51827;51.186;6.926;2024-01-16T05:16:17;5.93;;;2.83;;
65238;SDS011;51827;51.186;6.926;2024-01-16T05:17:18;9.40;;;2.70;;
65238;SDS011;51827;51.186;6.926;2024-01-16T05:18:18;10.87;;;3.30;;
65238;SDS011;51827;51.186;6.926;2024-01-16T05:19:18;9.23;;;2.43;;
65238;SDS011;51827;51.186;6.926;2024-01-16T05:20:18;7.57;;;2.30;;
65238;SDS011;51827;51.186;6.926;2024-01-16T05:21:19;6.63;;;2.33;;
65238;SDS011;51827;51.186;6.926;2024-01-16T05:22:20;8.63;;;2.20;;
65238;SDS011;51827;51.186;6.926;2024-01-16T05:23:20;7.00;;;2.30;;
65238;SDS011;51827;51.186;6.926;2024-01-16T05:24:20;9.07;;;2.20;;
65238;SDS011;51827;51.186;6.926;2024-01-16T05:25:20;4.73;;;2.00;;
65238;SDS011;51827;51.186;6.926;2024-01-16T05:26:21;4.63;;;1.77;;
65238;SDS011;51827;51.186;6.926;2024-01-16T05:27:21;5.60;;;2.33;;
65238;SDS011;51827;51.186;6.926;2024-01-16T05:28:22;6.40;;;2.43;;
65238;SDS011;51827;51.186;6.926;2024-01-16T05:29:22;8.05;;;2.00;;
65238;SDS011;51827;51.186;6.926;2024-01-16T05:30:22;4.80;;;1.90;;
65238;SDS011;51827;51.186;6.926;2024-01-16T05:31:22;4.33;;;2.27;;
65238;SDS011;51827;51.186;6.926;2024-01-16T05:32:23;5.37;;;1.90;;
65238;SDS011;51827;51.186;6.926;2024-01-16T05:33:23;5.23;;;1.77;;
65238;SDS011;51827;51.186;6.926;2024-01-16T05:34:23;3.07;;;1.50;;
65238;SDS011;51827;51.186;6.926;2024-01-16T05:35:23;5.40;;;1.50;;
65238;SDS011;51827;51.186;6.926;2024-01-16T05:36:24;4.40;;;1.60;;
65238;SDS011;51827;51.186;6.926;2024-01-16T05:37:24;5.57;;;1.70;;
65238;SDS011;51827;51.186;6.926;2024-01-16T05:38:24;4.17;;;1.63;;
65238;SDS011;51827;51.186;6.926;2024-01-16T05:39:24;3.43;;;1.77;;
65238;SDS011;51827;51.186;6.926;2024-01-16T05:40:25;4.00;;;1.47;;
65238;SDS011;51827;51.186;6.926;2024-01-16T05:41:26;5.43;;;1.65;;
65238;SDS011;51827;51.186;6.926;2024-01-16T05:43:26;3.72;;;1.85;;
65238;SDS011;51827;51.186;6.926;2024-01-16T05:44:27;6.40;;;1.77;;
65238;SDS011;51827;51.186;6.926;2024-01-16T05:45:27;3.73;;;1.50;;
65238;SDS011;51827;51.186;6.926;2024-01-16T05:46:27;4.17;;;1.73;;
65238;SDS011;51827;51.186;6.926;2024-01-16T05:47:27;5.37;;;1.43;;
65238;SDS011;51827;51.186;6.926;2024-01-16T05:48:28;4.87;;;1.40;;
65238;SDS011;51827;51.186;6.926;2024-01-16T05:49:28;2.73;;;1.50;;
65238;SDS011;51827;51.186;6.926;2024-01-16T05:50:28;3.20;;;1.40;;
65238;SDS011;51827;51.186;6.926;2024-01-16T05:51:29;2.97;;;1.35;;
65238;SDS011;51827;51.186;6.926;2024-01-16T05:52:29;6.43;;;1.65;;
65238;SDS011;51827;51.186;6.926;2024-01-16T05:53:30;3.10;;;1.50;;
65238;SDS011;51827;51.186;6.926;2024-01-16T05:54:30;5.57;;;1.63;;
65238;SDS011;51827;51.186;6.926;2024-01-16T05:55:30;2.83;;;1.43;;
65238;SDS011;51827;51.186;6.926;2024-01-16T05:56:31;4.43;;;1.63;;
65238;SDS011;51827;51.186;6.926;2024-01-16T05:57:31;3.60;;;1.58;;
65238;SDS011;51827;51.186;6.926;2024-01-16T05:58:31;3.97;;;1.80;;
65238;SDS011;51827;51.186;6.926;2024-01-16T05:59:31;3.27;;;1.40;;
65238;SDS011;51827;51.186;6.926;2024-01-16T06:00:32;8.10;;;1.60;;
65238;SDS011;51827;51.186;6.926;2024-01-16T06:01:32;3.53;;;1.40;;
65238;SDS011;51827;51.186;6.926;2024-01-16T06:02:33;4.50;;;1.52;;
65238;SDS011;51827;51.186;6.926;2024-01-16T06:03:34;4.07;;;1.40;;
65238;SDS011;51827;51.186;6.926;2024-01-16T06:04:34;3.10;;;1.53;;
65238;SDS011;51827;51.186;6.926;2024-01-16T06:05:34;3.93;;;1.30;;
65238;SDS011;51827;51.186;6.926;2024-01-16T06:06:34;5.63;;;1.53;;
65238;SDS011;51827;51.186;6.926;2024-01-16T06:07:35;3.00;;;1.50;;
65238;SDS011;51827;51.186;6.926;2024-01-16T06:08:35;4.30;;;1.60;;